sensor_id;sensor_type;location;lat;lon;timestamp;P1;durP1;ratioP1;P2;durP2;ratioP2
15258;SDS011;34462;51.368;12.364;2023-08-20T00:00:14;8.38;;;7.50;;
15258;SDS011;34462;51.368;12.364;2023-08-20T00:02:45;8.95;;;6.93;;
15258;SDS011;34462;51.368;12.364;2023-08-20T00:05:16;8.50;;;7.60;;
15258;SDS011;34462;51.368;12.364;2023-08-20T00:07:45;11.50;;;7.80;;
15258;SDS011;34462;51.368;12.364;2023-08-20T00:10:14;8.85;;;7.80;;
15258;SDS011;34462;51.368;12.364;2023-08-20T00:12:42;9.10;;;8.20;;
15258;SDS011;34462;51.368;12.364;2023-08-20T00:15:11;8.70;;;7.00;;
15258;SDS011;34462;51.368;12.364;2023-08-20T00:17:40;8.20;;;7.32;;
15258;SDS011;34462;51.368;12.364;2023-08-20T00:20:09;8.63;;;7.47;;
15258;SDS011;34462;51.368;12.364;2023-08-20T00:22:41;8.23;;;7.53;;
15258;SDS011;34462;51.368;12.364;2023-08-20T00:25:12;7.95;;;7.25;;
15258;SDS011;34462;51.368;12.364;2023-08-20T00:27:41;8.35;;;7.50;;
15258;SDS011;34462;51.368;12.364;2023-08-20T00:30:10;10.27;;;8.05;;
15258;SDS011;34462;51.368;12.364;2023-08-20T00:32:39;8.73;;;7.47;;
15258;SDS011;34462;51.368;12.364;2023-08-20T00:35:08;9.93;;;7.97;;
15258;SDS011;34462;51.368;12.364;2023-08-20T00:37:37;9.15;;;8.25;;
15258;SDS011;34462;51.368;12.364;2023-08-20T00:40:07;9.75;;;8.70;;
15258;SDS011;34462;51.368;12.364;2023-08-20T00:42:37;8.48;;;7.68;;
15258;SDS011;34462;51.368;12.364;2023-08-20T00:45:05;11.35;;;7.93;;
15258;SDS011;34462;51.368;12.364;2023-08-20T00:47:34;12.35;;;8.43;;
15258;SDS011;34462;51.368;12.364;2023-08-20T00:50:05;9.60;;;8.63;;
15258;SDS011;34462;51.368;12.364;2023-08-20T00:52:35;8.80;;;7.68;;
15258;SDS011;34462;51.368;12.364;2023-08-20T00:55:05;10.50;;;8.13;;
15258;SDS011;34462;51.368;12.364;2023-08-20T00:57:37;9.27;;;7.78;;
15258;SDS011;34462;51.368;12.364;2023-08-20T01:00:07;9.48;;;7.60;;
15258;SDS011;34462;51.368;12.364;2023-08-20T01:02:37;10.10;;;8.40;;
15258;SDS011;34462;51.368;12.364;2023-08-20T01:05:07;12.23;;;8.30;;
15258;SDS011;34462;51.368;12.364;2023-08-20T01:10:46;8.48;;;7.68;;
15258;SDS011;34462;51.368;12.364;2023-08-20T01:13:22;10.18;;;8.65;;
15258;SDS011;34462;51.368;12.364;2023-08-20T01:15:51;10.90;;;8.10;;
15258;SDS011;34462;51.368;12.364;2023-08-20T01:18:19;9.02;;;8.00;;
15258;SDS011;34462;51.368;12.364;2023-08-20T01:20:50;8.95;;;8.00;;
15258;SDS011;34462;51.368;12.364;2023-08-20T01:23:38;11.40;;;8.20;;
15258;SDS011;34462;51.368;12.364;2023-08-20T01:26:25;9.05;;;8.13;;
15258;SDS011;34462;51.368;12.364;2023-08-20T01:29:09;11.40;;;8.15;;
15258;SDS011;34462;51.368;12.364;2023-08-20T01:31:38;10.07;;;8.20;;
15258;SDS011;34462;51.368;12.364;2023-08-20T01:34:09;12.38;;;9.30;;
15258;SDS011;34462;51.368;12.364;2023-08-20T01:36:37;11.40;;;9.57;;
15258;SDS011;34462;51.368;12.364;2023-08-20T01:39:06;13.25;;;10.00;;
15258;SDS011;34462;51.368;12.364;2023-08-20T01:41:34;11.95;;;10.25;;
15258;SDS011;34462;51.368;12.364;2023-08-20T01:44:03;13.93;;;10.27;;
15258;SDS011;34462;51.368;12.364;2023-08-20T01:46:33;13.10;;;11.63;;
15258;SDS011;34462;51.368;12.364;2023-08-20T01:49:03;16.73;;;12.43;;
15258;SDS011;34462;51.368;12.364;2023-08-20T01:51:31;15.48;;;12.75;;
15258;SDS011;34462;51.368;12.364;2023-08-20T01:54:00;12.23;;;11.00;;
15258;SDS011;34462;51.368;12.364;2023-08-20T01:56:29;15.88;;;13.30;;
15258;SDS011;34462;51.368;12.364;2023-08-20T01:58:57;18.02;;;15.10;;
15258;SDS011;34462;51.368;12.364;2023-08-20T02:01:26;17.33;;;15.52;;
15258;SDS011;34462;51.368;12.364;2023-08-20T02:03:56;18.52;;;16.65;;
15258;SDS011;34462;51.368;12.364;2023-08-20T02:06:24;20.23;;;17.08;;
15258;SDS011;34462;51.368;12.364;2023-08-20T02:08:52;19.38;;;17.27;;
15258;SDS011;34462;51.368;12.364;2023-08-20T02:11:21;18.92;;;17.13;;
15258;SDS011;34462;51.368;12.364;2023-08-20T02:13:50;19.15;;;17.15;;
15258;SDS011;34462;51.368;12.364;2023-08-20T02:16:18;17.17;;;15.05;;
15258;SDS011;34462;51.368;12.364;2023-08-20T02:18:47;17.75;;;15.95;;
15258;SDS011;34462;51.368;12.364;2023-08-20T02:21:16;20.38;;;17.80;;
15258;SDS011;34462;51.368;12.364;2023-08-20T02:23:45;20.60;;;17.48;;
15258;SDS011;34462;51.368;12.364;2023-08-20T02:26:13;19.98;;;18.08;;
15258;SDS011;34462;51.368;12.364;2023-08-20T02:28:42;18.98;;;17.13;;
15258;SDS011;34462;51.368;12.364;2023-08-20T02:31:11;19.08;;;17.10;;
15258;SDS011;34462;51.368;12.364;2023-08-20T02:33:39;20.38;;;18.27;;
15258;SDS011;34462;51.368;12.364;2023-08-20T02:36:08;19.20;;;17.25;;
15258;SDS011;34462;51.368;12.364;2023-08-20T02:38:38;21.65;;;19.45;;
15258;SDS011;34462;51.368;12.364;2023-08-20T02:41:06;19.30;;;17.20;;
15258;SDS011;34462;51.368;12.364;2023-08-20T02:43:34;20.27;;;18.27;;
15258;SDS011;34462;51.368;12.364;2023-08-20T02:46:03;20.75;;;18.67;;
15258;SDS011;34462;51.368;12.364;2023-08-20T02:48:31;20.15;;;18.27;;
15258;SDS011;34462;51.368;12.364;2023-08-20T02:51:00;19.98;;;18.02;;
15258;SDS011;34462;51.368;12.364;2023-08-20T02:53:29;19.75;;;17.85;;
15258;SDS011;34462;51.368;12.364;2023-08-20T02:55:58;20.58;;;18.52;;
15258;SDS011;34462;51.368;12.364;2023-08-20T02:58:27;20.88;;;18.65;;
15258;SDS011;34462;51.368;12.364;2023-08-20T03:00:56;22.23;;;20.00;;
15258;SDS011;34462;51.368;12.364;2023-08-20T03:03:25;20.02;;;17.65;;
15258;SDS011;34462;51.368;12.364;2023-08-20T03:05:53;18.67;;;16.67;;
15258;SDS011;34462;51.368;12.364;2023-08-20T03:08:22;18.48;;;16.65;;
15258;SDS011;34462;51.368;12.364;2023-08-20T03:10:50;20.67;;;18.58;;
15258;SDS011;34462;51.368;12.364;2023-08-20T03:13:20;21.17;;;19.00;;
15258;SDS011;34462;51.368;12.364;2023-08-20T03:15:49;17.67;;;15.80;;
15258;SDS011;34462;51.368;12.364;2023-08-20T03:18:18;19.38;;;17.38;;
15258;SDS011;34462;51.368;12.364;2023-08-20T03:20:46;19.92;;;16.63;;
15258;SDS011;34462;51.368;12.364;2023-08-20T03:23:15;20.10;;;18.08;;
15258;SDS011;34462;51.368;12.364;2023-08-20T03:25:43;22.38;;;17.98;;
15258;SDS011;34462;51.368;12.364;2023-08-20T03:28:12;19.00;;;17.10;;
15258;SDS011;34462;51.368;12.364;2023-08-20T03:30:42;18.92;;;17.13;;
15258;SDS011;34462;51.368;12.364;2023-08-20T03:33:10;19.55;;;17.08;;
15258;SDS011;34462;51.368;12.364;2023-08-20T03:35:39;21.52;;;19.38;;
15258;SDS011;34462;51.368;12.364;2023-08-20T03:38:07;19.50;;;17.63;;
15258;SDS011;34462;51.368;12.364;2023-08-20T03:40:36;19.90;;;16.88;;
15258;SDS011;34462;51.368;12.364;2023-08-20T03:43:04;19.58;;;17.67;;
15258;SDS011;34462;51.368;12.364;2023-08-20T03:45:33;19.08;;;17.17;;
15258;SDS011;34462;51.368;12.364;2023-08-20T03:48:03;21.45;;;19.23;;
15258;SDS011;34462;51.368;12.364;2023-08-20T03:50:32;20.13;;;17.73;;
15258;SDS011;34462;51.368;12.364;2023-08-20T03:53:00;19.40;;;17.40;;
15258;SDS011;34462;51.368;12.364;2023-08-20T03:55:29;20.17;;;18.23;;
15258;SDS011;34462;51.368;12.364;2023-08-20T03:57:57;22.13;;;17.98;;
15258;SDS011;34462;51.368;12.364;2023-08-20T04:00:26;20.02;;;18.00;;
15258;SDS011;34462;51.368;12.364;2023-08-20T04:02:54;19.73;;;17.60;;
15258;SDS011;34462;51.368;12.364;2023-08-20T04:05:24;20.45;;;18.25;;
15258;SDS011;34462;51.368;12.364;2023-08-20T04:07:52;21.15;;;18.65;;
15258;SDS011;34462;51.368;12.364;2023-08-20T04:10:21;21.25;;;19.15;;
15258;SDS011;34462;51.368;12.364;2023-08-20T04:12:49;20.35;;;18.27;;
15258;SDS011;34462;51.368;12.364;2023-08-20T04:15:18;24.35;;;21.30;;
15258;SDS011;34462;51.368;12.364;2023-08-20T04:17:46;25.73;;;22.35;;
15258;SDS011;34462;51.368;12.364;2023-08-20T04:20:15;23.98;;;21.45;;
15258;SDS011;34462;51.368;12.364;2023-08-20T04:22:45;27.00;;;23.95;;
15258;SDS011;34462;51.368;12.364;2023-08-20T04:25:14;27.02;;;24.17;;
15258;SDS011;34462;51.368;12.364;2023-08-20T04:27:42;24.83;;;21.83;;
15258;SDS011;34462;51.368;12.364;2023-08-20T04:30:11;28.98;;;26.08;;
15258;SDS011;34462;51.368;12.364;2023-08-20T04:32:40;28.58;;;25.63;;
15258;SDS011;34462;51.368;12.364;2023-08-20T04:35:08;28.10;;;25.10;;
15258;SDS011;34462;51.368;12.364;2023-08-20T04:37:37;30.25;;;26.85;;
15258;SDS011;34462;51.368;12.364;2023-08-20T04:40:07;31.65;;;27.10;;
15258;SDS011;34462;51.368;12.364;2023-08-20T04:42:37;31.40;;;28.02;;
15258;SDS011;34462;51.368;12.364;2023-08-20T04:45:05;29.92;;;26.65;;
15258;SDS011;34462;51.368;12.364;2023-08-20T04:47:35;37.30;;;29.50;;
15258;SDS011;34462;51.368;12.364;2023-08-20T04:50:04;32.00;;;28.50;;
15258;SDS011;34462;51.368;12.364;2023-08-20T04:52:33;30.67;;;27.45;;
15258;SDS011;34462;51.368;12.364;2023-08-20T04:55:02;30.67;;;27.38;;
15258;SDS011;34462;51.368;12.364;2023-08-20T04:57:32;31.15;;;27.40;;
15258;SDS011;34462;51.368;12.364;2023-08-20T05:00:01;31.33;;;28.02;;
15258;SDS011;34462;51.368;12.364;2023-08-20T05:02:31;32.42;;;28.85;;
15258;SDS011;34462;51.368;12.364;2023-08-20T05:05:01;33.03;;;28.88;;
15258;SDS011;34462;51.368;12.364;2023-08-20T05:07:29;28.65;;;25.65;;
15258;SDS011;34462;51.368;12.364;2023-08-20T05:09:58;37.08;;;31.42;;
15258;SDS011;34462;51.368;12.364;2023-08-20T05:12:26;33.17;;;29.60;;
15258;SDS011;34462;51.368;12.364;2023-08-20T05:14:56;32.40;;;28.30;;
15258;SDS011;34462;51.368;12.364;2023-08-20T05:17:25;31.80;;;27.50;;
15258;SDS011;34462;51.368;12.364;2023-08-20T05:19:53;31.48;;;28.17;;
15258;SDS011;34462;51.368;12.364;2023-08-20T05:22:22;31.23;;;27.73;;
15258;SDS011;34462;51.368;12.364;2023-08-20T05:24:50;30.27;;;26.98;;
15258;SDS011;34462;51.368;12.364;2023-08-20T05:27:18;31.50;;;28.20;;
15258;SDS011;34462;51.368;12.364;2023-08-20T05:29:47;34.58;;;28.40;;
15258;SDS011;34462;51.368;12.364;2023-08-20T05:32:17;28.77;;;25.55;;
15258;SDS011;34462;51.368;12.364;2023-08-20T05:34:45;29.10;;;26.00;;
15258;SDS011;34462;51.368;12.364;2023-08-20T05:37:14;29.10;;;26.02;;
15258;SDS011;34462;51.368;12.364;2023-08-20T05:39:42;29.20;;;26.20;;
15258;SDS011;34462;51.368;12.364;2023-08-20T05:42:11;27.80;;;24.80;;
15258;SDS011;34462;51.368;12.364;2023-08-20T05:44:40;27.80;;;24.58;;
15258;SDS011;34462;51.368;12.364;2023-08-20T05:47:08;25.75;;;23.00;;
15258;SDS011;34462;51.368;12.364;2023-08-20T05:49:38;28.00;;;23.73;;
15258;SDS011;34462;51.368;12.364;2023-08-20T05:52:06;24.23;;;21.67;;
15258;SDS011;34462;51.368;12.364;2023-08-20T05:54:35;24.48;;;21.92;;
15258;SDS011;34462;51.368;12.364;2023-08-20T05:57:04;26.17;;;23.48;;
15258;SDS011;34462;51.368;12.364;2023-08-20T05:59:33;25.23;;;22.65;;
15258;SDS011;34462;51.368;12.364;2023-08-20T06:02:01;23.70;;;21.20;;
15258;SDS011;34462;51.368;12.364;2023-08-20T06:04:30;20.70;;;18.63;;
15258;SDS011;34462;51.368;12.364;2023-08-20T06:07:00;24.02;;;21.50;;
15258;SDS011;34462;51.368;12.364;2023-08-20T06:09:28;18.88;;;17.00;;
15258;SDS011;34462;51.368;12.364;2023-08-20T06:11:57;21.58;;;19.33;;
15258;SDS011;34462;51.368;12.364;2023-08-20T06:14:25;20.88;;;18.75;;
15258;SDS011;34462;51.368;12.364;2023-08-20T06:16:54;22.95;;;20.58;;
15258;SDS011;34462;51.368;12.364;2023-08-20T06:19:23;23.83;;;21.35;;
15258;SDS011;34462;51.368;12.364;2023-08-20T06:21:51;23.23;;;20.50;;
15258;SDS011;34462;51.368;12.364;2023-08-20T06:24:21;21.00;;;18.95;;
15258;SDS011;34462;51.368;12.364;2023-08-20T06:26:50;24.63;;;20.50;;
15258;SDS011;34462;51.368;12.364;2023-08-20T06:29:19;22.35;;;20.05;;
15258;SDS011;34462;51.368;12.364;2023-08-20T06:31:48;22.23;;;17.85;;
15258;SDS011;34462;51.368;12.364;2023-08-20T06:34:17;20.75;;;18.38;;
15258;SDS011;34462;51.368;12.364;2023-08-20T06:36:46;20.77;;;18.48;;
15258;SDS011;34462;51.368;12.364;2023-08-20T06:39:14;21.00;;;18.80;;
15258;SDS011;34462;51.368;12.364;2023-08-20T06:41:46;20.92;;;18.73;;
15258;SDS011;34462;51.368;12.364;2023-08-20T06:44:14;19.73;;;17.77;;
15258;SDS011;34462;51.368;12.364;2023-08-20T06:46:43;20.40;;;17.90;;
15258;SDS011;34462;51.368;12.364;2023-08-20T06:49:11;18.08;;;16.15;;
15258;SDS011;34462;51.368;12.364;2023-08-20T06:51:40;18.85;;;16.85;;
15258;SDS011;34462;51.368;12.364;2023-08-20T06:54:08;17.10;;;15.27;;
15258;SDS011;34462;51.368;12.364;2023-08-20T06:56:37;19.35;;;17.35;;
15258;SDS011;34462;51.368;12.364;2023-08-20T06:59:07;19.13;;;17.00;;
15258;SDS011;34462;51.368;12.364;2023-08-20T07:01:36;20.50;;;18.33;;
15258;SDS011;34462;51.368;12.364;2023-08-20T07:04:05;17.77;;;16.02;;
15258;SDS011;34462;51.368;12.364;2023-08-20T07:06:33;16.70;;;15.18;;
15258;SDS011;34462;51.368;12.364;2023-08-20T07:09:02;17.77;;;16.17;;
15258;SDS011;34462;51.368;12.364;2023-08-20T07:11:31;18.02;;;16.30;;
15258;SDS011;34462;51.368;12.364;2023-08-20T07:13:59;17.30;;;15.70;;
15258;SDS011;34462;51.368;12.364;2023-08-20T07:16:30;17.42;;;15.70;;
15258;SDS011;34462;51.368;12.364;2023-08-20T07:18:59;16.40;;;14.57;;
15258;SDS011;34462;51.368;12.364;2023-08-20T07:21:27;17.15;;;15.35;;
15258;SDS011;34462;51.368;12.364;2023-08-20T07:23:56;16.45;;;14.85;;
15258;SDS011;34462;51.368;12.364;2023-08-20T07:26:24;16.08;;;14.40;;
15258;SDS011;34462;51.368;12.364;2023-08-20T07:28:52;17.10;;;15.48;;
15258;SDS011;34462;51.368;12.364;2023-08-20T07:31:24;15.60;;;14.20;;
15258;SDS011;34462;51.368;12.364;2023-08-20T07:33:55;14.30;;;12.80;;
15258;SDS011;34462;51.368;12.364;2023-08-20T07:36:30;14.27;;;12.90;;
15258;SDS011;34462;51.368;12.364;2023-08-20T07:38:59;14.20;;;12.82;;
15258;SDS011;34462;51.368;12.364;2023-08-20T07:41:28;11.60;;;10.50;;
15258;SDS011;34462;51.368;12.364;2023-08-20T07:43:57;10.95;;;9.88;;
15258;SDS011;34462;51.368;12.364;2023-08-20T07:46:25;11.10;;;10.00;;
15258;SDS011;34462;51.368;12.364;2023-08-20T07:48:55;12.32;;;11.07;;
15258;SDS011;34462;51.368;12.364;2023-08-20T07:51:24;12.18;;;10.88;;
15258;SDS011;34462;51.368;12.364;2023-08-20T07:53:52;11.77;;;10.57;;
15258;SDS011;34462;51.368;12.364;2023-08-20T07:56:21;10.60;;;9.70;;
15258;SDS011;34462;51.368;12.364;2023-08-20T07:58:49;9.55;;;8.65;;
15258;SDS011;34462;51.368;12.364;2023-08-20T08:01:18;10.57;;;9.48;;
15258;SDS011;34462;51.368;12.364;2023-08-20T08:03:46;11.32;;;10.18;;
15258;SDS011;34462;51.368;12.364;2023-08-20T08:06:17;12.23;;;9.88;;
15258;SDS011;34462;51.368;12.364;2023-08-20T08:08:46;10.50;;;8.93;;
15258;SDS011;34462;51.368;12.364;2023-08-20T08:11:14;9.52;;;8.63;;
15258;SDS011;34462;51.368;12.364;2023-08-20T08:13:43;9.45;;;8.35;;
15258;SDS011;34462;51.368;12.364;2023-08-20T08:16:11;8.48;;;7.68;;
15258;SDS011;34462;51.368;12.364;2023-08-20T08:18:40;8.32;;;7.53;;
15258;SDS011;34462;51.368;12.364;2023-08-20T08:21:08;9.60;;;8.70;;
15258;SDS011;34462;51.368;12.364;2023-08-20T08:23:38;10.60;;;8.25;;
15258;SDS011;34462;51.368;12.364;2023-08-20T08:26:06;8.68;;;7.88;;
15258;SDS011;34462;51.368;12.364;2023-08-20T08:28:35;9.45;;;8.63;;
15258;SDS011;34462;51.368;12.364;2023-08-20T08:31:03;9.05;;;8.15;;
15258;SDS011;34462;51.368;12.364;2023-08-20T08:33:33;9.10;;;8.20;;
15258;SDS011;34462;51.368;12.364;2023-08-20T08:36:02;9.38;;;8.48;;
15258;SDS011;34462;51.368;12.364;2023-08-20T08:38:31;9.35;;;8.45;;
15258;SDS011;34462;51.368;12.364;2023-08-20T08:41:00;10.85;;;9.73;;
15258;SDS011;34462;51.368;12.364;2023-08-20T08:43:30;10.23;;;9.20;;
15258;SDS011;34462;51.368;12.364;2023-08-20T08:46:00;9.77;;;8.88;;
15258;SDS011;34462;51.368;12.364;2023-08-20T08:48:30;10.30;;;9.32;;
15258;SDS011;34462;51.368;12.364;2023-08-20T08:50:59;9.23;;;8.43;;
15258;SDS011;34462;51.368;12.364;2023-08-20T08:53:28;9.30;;;8.40;;
15258;SDS011;34462;51.368;12.364;2023-08-20T08:56:01;8.13;;;7.43;;
15258;SDS011;34462;51.368;12.364;2023-08-20T08:58:32;10.10;;;9.15;;
15258;SDS011;34462;51.368;12.364;2023-08-20T09:01:00;12.20;;;9.30;;
15258;SDS011;34462;51.368;12.364;2023-08-20T09:03:29;9.98;;;8.98;;
15258;SDS011;34462;51.368;12.364;2023-08-20T09:05:58;10.32;;;9.32;;
15258;SDS011;34462;51.368;12.364;2023-08-20T09:08:30;10.48;;;9.57;;
15258;SDS011;34462;51.368;12.364;2023-08-20T09:11:00;9.73;;;8.73;;
15258;SDS011;34462;51.368;12.364;2023-08-20T09:13:32;9.65;;;8.40;;
15258;SDS011;34462;51.368;12.364;2023-08-20T09:16:05;10.13;;;9.15;;
15258;SDS011;34462;51.368;12.364;2023-08-20T09:18:37;9.98;;;9.07;;
15258;SDS011;34462;51.368;12.364;2023-08-20T09:21:07;10.18;;;9.27;;
15258;SDS011;34462;51.368;12.364;2023-08-20T09:23:36;10.35;;;9.32;;
15258;SDS011;34462;51.368;12.364;2023-08-20T09:26:07;9.52;;;8.63;;
15258;SDS011;34462;51.368;12.364;2023-08-20T09:28:40;11.43;;;9.32;;
15258;SDS011;34462;51.368;12.364;2023-08-20T09:31:09;10.55;;;9.25;;
15258;SDS011;34462;51.368;12.364;2023-08-20T09:33:44;10.05;;;9.15;;
15258;SDS011;34462;51.368;12.364;2023-08-20T09:36:17;10.98;;;9.55;;
15258;SDS011;34462;51.368;12.364;2023-08-20T09:38:48;10.13;;;9.30;;
15258;SDS011;34462;51.368;12.364;2023-08-20T09:41:20;10.52;;;9.32;;
15258;SDS011;34462;51.368;12.364;2023-08-20T09:43:51;9.52;;;8.63;;
15258;SDS011;34462;51.368;12.364;2023-08-20T09:46:23;9.40;;;8.50;;
15258;SDS011;34462;51.368;12.364;2023-08-20T09:48:54;9.68;;;8.77;;
15258;SDS011;34462;51.368;12.364;2023-08-20T09:51:25;9.02;;;8.13;;
15258;SDS011;34462;51.368;12.364;2023-08-20T09:53:55;9.52;;;8.57;;
15258;SDS011;34462;51.368;12.364;2023-08-20T09:56:35;10.40;;;9.13;;
15258;SDS011;34462;51.368;12.364;2023-08-20T09:59:07;9.55;;;8.75;;
15258;SDS011;34462;51.368;12.364;2023-08-20T10:01:38;8.35;;;7.65;;
15258;SDS011;34462;51.368;12.364;2023-08-20T10:04:07;10.52;;;9.43;;
15258;SDS011;34462;51.368;12.364;2023-08-20T10:06:37;9.73;;;8.75;;
15258;SDS011;34462;51.368;12.364;2023-08-20T10:09:06;9.15;;;8.25;;
15258;SDS011;34462;51.368;12.364;2023-08-20T10:11:36;9.55;;;8.10;;
15258;SDS011;34462;51.368;12.364;2023-08-20T10:14:05;9.23;;;8.43;;
15258;SDS011;34462;51.368;12.364;2023-08-20T10:16:33;8.55;;;7.75;;
15258;SDS011;34462;51.368;12.364;2023-08-20T10:19:02;8.40;;;7.70;;
15258;SDS011;34462;51.368;12.364;2023-08-20T10:21:32;9.63;;;8.63;;
15258;SDS011;34462;51.368;12.364;2023-08-20T10:24:03;8.60;;;7.80;;
15258;SDS011;34462;51.368;12.364;2023-08-20T10:26:33;8.00;;;7.30;;
15258;SDS011;34462;51.368;12.364;2023-08-20T10:32:14;10.27;;;9.27;;
15258;SDS011;34462;51.368;12.364;2023-08-20T10:34:43;8.30;;;7.70;;
15258;SDS011;34462;51.368;12.364;2023-08-20T10:37:25;8.60;;;7.90;;
15258;SDS011;34462;51.368;12.364;2023-08-20T10:39:55;8.65;;;7.95;;
15258;SDS011;34462;51.368;12.364;2023-08-20T10:42:27;8.45;;;7.60;;
15258;SDS011;34462;51.368;12.364;2023-08-20T10:44:56;8.18;;;7.50;;
15258;SDS011;34462;51.368;12.364;2023-08-20T10:47:29;8.20;;;7.47;;
15258;SDS011;34462;51.368;12.364;2023-08-20T10:50:04;8.60;;;7.82;;
15258;SDS011;34462;51.368;12.364;2023-08-20T10:52:40;8.35;;;7.55;;
15258;SDS011;34462;51.368;12.364;2023-08-20T10:55:14;8.55;;;7.70;;
15258;SDS011;34462;51.368;12.364;2023-08-20T10:57:43;7.85;;;7.25;;
15258;SDS011;34462;51.368;12.364;2023-08-20T11:00:14;8.77;;;7.88;;
15258;SDS011;34462;51.368;12.364;2023-08-20T11:02:44;8.65;;;7.80;;
15258;SDS011;34462;51.368;12.364;2023-08-20T11:05:17;9.52;;;8.57;;
15258;SDS011;34462;51.368;12.364;2023-08-20T11:07:48;8.48;;;7.75;;
15258;SDS011;34462;51.368;12.364;2023-08-20T11:10:17;8.32;;;7.63;;
15258;SDS011;34462;51.368;12.364;2023-08-20T11:12:45;8.10;;;7.43;;
15258;SDS011;34462;51.368;12.364;2023-08-20T11:15:14;8.35;;;7.53;;
15258;SDS011;34462;51.368;12.364;2023-08-20T11:17:44;9.25;;;7.97;;
15258;SDS011;34462;51.368;12.364;2023-08-20T11:20:17;9.45;;;8.40;;
15258;SDS011;34462;51.368;12.364;2023-08-20T11:22:46;8.35;;;7.55;;
15258;SDS011;34462;51.368;12.364;2023-08-20T11:25:14;8.27;;;7.57;;
15258;SDS011;34462;51.368;12.364;2023-08-20T11:27:43;8.77;;;7.97;;
15258;SDS011;34462;51.368;12.364;2023-08-20T11:30:12;9.23;;;8.43;;
15258;SDS011;34462;51.368;12.364;2023-08-20T11:32:41;9.18;;;8.40;;
15258;SDS011;34462;51.368;12.364;2023-08-20T11:35:13;9.10;;;8.30;;
15258;SDS011;34462;51.368;12.364;2023-08-20T11:37:41;8.48;;;7.50;;
15258;SDS011;34462;51.368;12.364;2023-08-20T11:40:11;8.82;;;8.13;;
15258;SDS011;34462;51.368;12.364;2023-08-20T11:42:39;8.60;;;7.82;;
15258;SDS011;34462;51.368;12.364;2023-08-20T11:45:09;8.20;;;7.50;;
15258;SDS011;34462;51.368;12.364;2023-08-20T11:47:38;8.23;;;7.53;;
15258;SDS011;34462;51.368;12.364;2023-08-20T11:50:08;7.40;;;6.80;;
15258;SDS011;34462;51.368;12.364;2023-08-20T11:52:38;8.13;;;7.32;;
15258;SDS011;34462;51.368;12.364;2023-08-20T11:55:07;7.28;;;6.63;;
15258;SDS011;34462;51.368;12.364;2023-08-20T11:57:36;7.93;;;7.32;;
15258;SDS011;34462;51.368;12.364;2023-08-20T12:00:05;8.15;;;7.25;;
15258;SDS011;34462;51.368;12.364;2023-08-20T12:02:37;7.75;;;7.13;;
15258;SDS011;34462;51.368;12.364;2023-08-20T12:05:08;8.65;;;7.80;;
15258;SDS011;34462;51.368;12.364;2023-08-20T12:07:38;8.02;;;7.22;;
15258;SDS011;34462;51.368;12.364;2023-08-20T12:10:19;9.82;;;8.93;;
15258;SDS011;34462;51.368;12.364;2023-08-20T12:12:49;7.70;;;7.10;;
15258;SDS011;34462;51.368;12.364;2023-08-20T12:15:18;7.45;;;6.85;;
15258;SDS011;34462;51.368;12.364;2023-08-20T12:17:59;7.60;;;6.90;;
15258;SDS011;34462;51.368;12.364;2023-08-20T12:20:31;8.00;;;7.40;;
15258;SDS011;34462;51.368;12.364;2023-08-20T12:23:02;7.53;;;6.82;;
15258;SDS011;34462;51.368;12.364;2023-08-20T12:25:34;8.13;;;7.20;;
15258;SDS011;34462;51.368;12.364;2023-08-20T12:28:03;7.78;;;7.18;;
15258;SDS011;34462;51.368;12.364;2023-08-20T12:30:33;8.25;;;7.55;;
15258;SDS011;34462;51.368;12.364;2023-08-20T12:33:04;7.40;;;6.80;;
15258;SDS011;34462;51.368;12.364;2023-08-20T12:35:34;7.63;;;7.03;;
15258;SDS011;34462;51.368;12.364;2023-08-20T12:38:04;7.45;;;6.80;;
15258;SDS011;34462;51.368;12.364;2023-08-20T12:40:34;7.28;;;6.78;;
15258;SDS011;34462;51.368;12.364;2023-08-20T12:43:03;8.02;;;7.38;;
15258;SDS011;34462;51.368;12.364;2023-08-20T12:45:31;7.80;;;7.10;;
15258;SDS011;34462;51.368;12.364;2023-08-20T12:48:00;8.30;;;7.60;;
15258;SDS011;34462;51.368;12.364;2023-08-20T12:50:29;7.22;;;6.63;;
15258;SDS011;34462;51.368;12.364;2023-08-20T12:52:58;9.13;;;8.30;;
15258;SDS011;34462;51.368;12.364;2023-08-20T12:55:28;7.38;;;6.75;;
15258;SDS011;34462;51.368;12.364;2023-08-20T12:57:57;7.65;;;7.05;;
15258;SDS011;34462;51.368;12.364;2023-08-20T13:00:26;8.45;;;7.65;;
15258;SDS011;34462;51.368;12.364;2023-08-20T13:02:56;7.68;;;7.05;;
15258;SDS011;34462;51.368;12.364;2023-08-20T13:05:26;8.15;;;7.40;;
15258;SDS011;34462;51.368;12.364;2023-08-20T13:07:55;7.72;;;7.05;;
15258;SDS011;34462;51.368;12.364;2023-08-20T13:10:24;8.63;;;7.90;;
15258;SDS011;34462;51.368;12.364;2023-08-20T13:12:59;8.65;;;7.85;;
15258;SDS011;34462;51.368;12.364;2023-08-20T13:15:29;7.95;;;7.25;;
15258;SDS011;34462;51.368;12.364;2023-08-20T13:18:01;8.35;;;7.60;;
15258;SDS011;34462;51.368;12.364;2023-08-20T13:20:30;7.93;;;7.22;;
15258;SDS011;34462;51.368;12.364;2023-08-20T13:22:58;8.15;;;7.45;;
15258;SDS011;34462;51.368;12.364;2023-08-20T13:25:27;7.85;;;7.18;;
15258;SDS011;34462;51.368;12.364;2023-08-20T13:27:55;8.35;;;7.55;;
15258;SDS011;34462;51.368;12.364;2023-08-20T13:30:25;9.00;;;8.20;;
15258;SDS011;34462;51.368;12.364;2023-08-20T13:32:54;8.48;;;7.78;;
15258;SDS011;34462;51.368;12.364;2023-08-20T13:35:23;8.35;;;7.60;;
15258;SDS011;34462;51.368;12.364;2023-08-20T13:37:51;8.02;;;7.40;;
15258;SDS011;34462;51.368;12.364;2023-08-20T13:40:20;7.57;;;6.97;;
15258;SDS011;34462;51.368;12.364;2023-08-20T13:42:48;7.85;;;7.25;;
15258;SDS011;34462;51.368;12.364;2023-08-20T13:45:19;7.97;;;7.28;;
15258;SDS011;34462;51.368;12.364;2023-08-20T13:47:47;7.93;;;7.15;;
15258;SDS011;34462;51.368;12.364;2023-08-20T13:50:16;8.13;;;7.47;;
15258;SDS011;34462;51.368;12.364;2023-08-20T13:52:45;8.70;;;7.82;;
15258;SDS011;34462;51.368;12.364;2023-08-20T13:55:13;7.72;;;7.03;;
15258;SDS011;34462;51.368;12.364;2023-08-20T13:57:43;8.05;;;7.45;;
15258;SDS011;34462;51.368;12.364;2023-08-20T14:00:11;8.35;;;7.55;;
15258;SDS011;34462;51.368;12.364;2023-08-20T14:02:42;8.77;;;7.68;;
15258;SDS011;34462;51.368;12.364;2023-08-20T14:05:11;7.78;;;7.07;;
15258;SDS011;34462;51.368;12.364;2023-08-20T14:07:39;8.13;;;7.43;;
15258;SDS011;34462;51.368;12.364;2023-08-20T14:10:08;7.90;;;7.20;;
15258;SDS011;34462;51.368;12.364;2023-08-20T14:12:37;8.48;;;7.68;;
15258;SDS011;34462;51.368;12.364;2023-08-20T14:15:07;8.25;;;7.55;;
15258;SDS011;34462;51.368;12.364;2023-08-20T14:17:37;8.38;;;7.30;;
15258;SDS011;34462;51.368;12.364;2023-08-20T14:20:07;8.02;;;7.22;;
15258;SDS011;34462;51.368;12.364;2023-08-20T14:22:37;7.75;;;7.10;;
15258;SDS011;34462;51.368;12.364;2023-08-20T14:25:06;8.20;;;7.55;;
15258;SDS011;34462;51.368;12.364;2023-08-20T14:27:35;8.73;;;7.82;;
15258;SDS011;34462;51.368;12.364;2023-08-20T14:30:05;7.43;;;6.82;;
15258;SDS011;34462;51.368;12.364;2023-08-20T14:32:36;7.82;;;7.20;;
15258;SDS011;34462;51.368;12.364;2023-08-20T14:35:08;8.57;;;7.18;;
15258;SDS011;34462;51.368;12.364;2023-08-20T14:37:37;7.72;;;6.88;;
15258;SDS011;34462;51.368;12.364;2023-08-20T14:40:06;7.88;;;7.07;;